Time;durP1;ratioP1;P1;durP2;ratioP2;P2;SDS_P1;SDS_P2;PMS_P1;PMS_P2;Temp;Humidity;BMP_temperature;BMP_pressure;BME280_temperature;BME280_humidity;BME280_pressure;Samples;Min_cycle;Max_cycle;Signal;HPM_P1;HPM_P2
2022/09/22 00:01:33;;;;;;;3.20;2.57;;;10.60;99.90;;;;;;5053903;28;20573;-71
2022/09/22 00:04:04;;;;;;;3.17;2.37;;;10.60;99.90;;;;;;5053702;28;20201;-71
2022/09/22 00:06:33;;;;;;;4.60;3.30;;;10.50;99.90;;;;;;5057702;28;20325;-70
2022/09/22 00:09:02;;;;;;;4.03;2.77;;;10.50;99.90;;;;;;5056640;28;20248;-70
2022/09/22 00:11:32;;;;;;;4.33;2.80;;;10.50;99.90;;;;;;5052792;28;20581;-70
2022/09/22 00:14:01;;;;;;;4.67;2.80;;;10.50;99.90;;;;;;5058647;28;20201;-70
2022/09/22 00:16:31;;;;;;;3.67;2.80;;;10.50;99.90;;;;;;5072031;28;20205;-70
2022/09/22 00:18:58;;;;;;;3.43;2.50;;;10.40;99.90;;;;;;5059239;28;20505;-70
2022/09/22 00:21:26;;;;;;;3.63;2.63;;;10.40;99.90;;;;;;5062046;28;20212;-71
2022/09/22 00:23:53;;;;;;;4.30;3.20;;;10.30;99.90;;;;;;5050411;28;20542;-70
2022/09/22 00:26:22;;;;;;;3.50;2.90;;;10.30;99.90;;;;;;5044341;28;20206;-70
2022/09/22 00:28:51;;;;;;;4.00;2.70;;;10.30;99.90;;;;;;5052215;28;20230;-71
2022/09/22 00:31:20;;;;;;;3.53;3.00;;;10.30;99.90;;;;;;5052018;28;20459;-71
2022/09/22 00:33:48;;;;;;;4.83;3.37;;;10.20;99.90;;;;;;5052695;28;20217;-70
2022/09/22 00:36:16;;;;;;;4.50;3.20;;;10.20;99.90;;;;;;5053405;28;20249;-71
2022/09/22 00:38:43;;;;;;;4.67;3.13;;;10.20;99.90;;;;;;5063543;28;20228;-70
2022/09/22 00:41:17;;;;;;;3.97;2.50;;;10.20;99.90;;;;;;5052741;28;20202;-70
2022/09/22 00:43:49;;;;;;;5.07;3.43;;;10.20;99.90;;;;;;5053101;28;20722;-71
2022/09/22 00:46:22;;;;;;;7.43;3.27;;;10.20;99.90;;;;;;5064617;28;20209;-70
2022/09/22 00:48:53;;;;;;;5.67;3.27;;;10.20;99.90;;;;;;5054124;28;20558;-71
2022/09/22 00:51:24;;;;;;;5.00;3.20;;;10.10;99.90;;;;;;5051346;28;20550;-70
2022/09/22 00:53:51;;;;;;;4.63;3.20;;;10.20;99.90;;;;;;5053267;28;20426;-70
2022/09/22 00:56:22;;;;;;;7.10;3.90;;;10.20;99.90;;;;;;5041294;28;20213;-71
2022/09/22 00:58:54;;;;;;;4.50;3.30;;;10.20;99.90;;;;;;5041490;28;20230;-72
2022/09/22 01:01:22;;;;;;;5.23;3.10;;;10.20;99.90;;;;;;5047408;28;20206;-69
2022/09/22 01:03:50;;;;;;;3.93;3.20;;;10.20;99.90;;;;;;5051398;28;20213;-70
2022/09/22 01:06:20;;;;;;;3.70;3.00;;;10.10;99.90;;;;;;5049597;28;20290;-71
2022/09/22 01:08:47;;;;;;;4.57;3.47;;;10.20;99.90;;;;;;5063703;28;20654;-71
2022/09/22 01:11:15;;;;;;;3.53;2.90;;;10.20;99.90;;;;;;5054877;28;20570;-70
2022/09/22 01:13:48;;;;;;;3.93;3.03;;;10.20;99.90;;;;;;5050912;28;20579;-71
2022/09/22 01:16:32;;;;;;;4.60;3.13;;;10.20;99.90;;;;;;5055744;28;20238;-71
2022/09/22 01:19:33;;;;;;;4.70;3.30;;;10.20;99.90;;;;;;5055887;28;20213;-70
2022/09/22 01:22:12;;;;;;;6.67;3.10;;;10.20;99.90;;;;;;5056528;28;20225;-71
2022/09/22 01:24:52;;;;;;;3.90;3.47;;;10.10;99.90;;;;;;5051918;28;20210;-70
2022/09/22 01:27:48;;;;;;;3.63;3.00;;;10.10;99.90;;;;;;5051112;28;20201;-70
2022/09/22 01:30:20;;;;;;;4.33;3.20;;;10.10;99.90;;;;;;5052538;28;20210;-71
2022/09/22 01:33:00;;;;;;;6.50;3.37;;;10.10;99.90;;;;;;5052302;28;20202;-70
2022/09/22 01:35:31;;;;;;;4.33;2.90;;;10.10;99.90;;;;;;5049005;28;20314;-70
2022/09/22 01:38:04;;;;;;;3.30;2.83;;;10.10;99.90;;;;;;5052054;28;20237;-70
2022/09/22 01:40:35;;;;;;;4.90;3.20;;;10.10;99.90;;;;;;5053670;28;20222;-70
2022/09/22 01:43:09;;;;;;;4.67;3.40;;;10.20;99.90;;;;;;5048247;28;20206;-70
2022/09/22 01:45:40;;;;;;;4.13;3.30;;;10.20;99.90;;;;;;5060266;28;20678;-70
2022/09/22 01:48:11;;;;;;;4.67;3.57;;;10.20;99.90;;;;;;5059868;28;20202;-70
2022/09/22 01:50:44;;;;;;;6.20;3.53;;;10.20;99.90;;;;;;5044358;28;20198;-70
2022/09/22 01:53:14;;;;;;;5.43;3.27;;;10.20;99.90;;;;;;5051428;28;20217;-70
2022/09/22 01:55:45;;;;;;;4.43;3.30;;;10.30;99.90;;;;;;5047788;28;20206;-70
2022/09/22 01:58:15;;;;;;;6.93;3.57;;;10.20;99.90;;;;;;5039939;28;20217;-69
2022/09/22 02:00:49;;;;;;;6.37;4.43;;;10.30;99.90;;;;;;5054208;28;20229;-71
2022/09/22 02:03:23;;;;;;;7.63;3.87;;;10.30;99.90;;;;;;5049891;28;20213;-70
2022/09/22 02:05:56;;;;;;;6.50;4.20;;;10.30;99.90;;;;;;5053891;28;20433;-70
2022/09/22 02:08:30;;;;;;;7.47;4.03;;;10.30;99.90;;;;;;5067738;28;20209;-70
2022/09/22 02:11:02;;;;;;;6.30;3.97;;;10.30;99.90;;;;;;5051062;28;20202;-70
2022/09/22 02:13:29;;;;;;;8.37;3.97;;;10.30;99.90;;;;;;5053095;28;20209;-70
2022/09/22 02:16:00;;;;;;;6.20;4.43;;;10.30;99.90;;;;;;5056018;28;20557;-71
2022/09/22 02:18:31;;;;;;;6.73;3.83;;;10.30;99.90;;;;;;5059421;28;20212;-70
2022/09/22 02:20:58;;;;;;;4.93;3.93;;;10.30;99.90;;;;;;5040913;28;20214;-70
2022/09/22 02:23:25;;;;;;;5.40;3.90;;;10.30;99.90;;;;;;5051348;28;20276;-70
2022/09/22 02:25:53;;;;;;;6.53;4.00;;;10.30;99.90;;;;;;5051402;28;20249;-71
2022/09/22 02:28:22;;;;;;;6.30;3.47;;;10.30;99.90;;;;;;5051001;28;20225;-71
2022/09/22 02:30:52;;;;;;;4.70;3.47;;;10.30;99.90;;;;;;5052481;28;20938;-71
2022/09/22 02:33:23;;;;;;;5.60;4.23;;;10.30;99.90;;;;;;5054346;28;20561;-71
2022/09/22 02:35:58;;;;;;;5.47;4.27;;;10.30;99.90;;;;;;5052164;28;20678;-70
2022/09/22 02:38:30;;;;;;;6.13;4.60;;;10.30;99.90;;;;;;5053362;28;20516;-70
2022/09/22 02:41:05;;;;;;;9.60;4.87;;;10.40;99.90;;;;;;5052645;28;20209;-71
2022/09/22 02:43:37;;;;;;;6.10;4.63;;;10.30;99.90;;;;;;5050373;28;20206;-70
2022/09/22 02:46:10;;;;;;;6.23;4.27;;;10.30;99.90;;;;;;5052866;28;20198;-69
2022/09/22 02:48:42;;;;;;;6.47;4.23;;;10.30;99.90;;;;;;5059119;28;20210;-70
2022/09/22 02:51:09;;;;;;;5.73;4.40;;;10.30;99.90;;;;;;5052497;28;20206;-71
2022/09/22 02:53:36;;;;;;;7.03;4.60;;;10.30;99.90;;;;;;5051346;28;20233;-70
2022/09/22 02:56:04;;;;;;;5.97;4.63;;;10.30;99.90;;;;;;5057512;28;20202;-70
2022/09/22 02:58:31;;;;;;;6.17;5.20;;;10.30;99.90;;;;;;5050818;28;20198;-71
2022/09/22 03:00:57;;;;;;;10.43;5.27;;;10.30;99.90;;;;;;5051762;28;20241;-71
2022/09/22 03:03:24;;;;;;;7.47;5.70;;;10.30;99.90;;;;;;5052027;28;20601;-71
2022/09/22 03:05:52;;;;;;;9.20;5.60;;;10.40;99.90;;;;;;5049967;28;20236;-71
2022/09/22 03:08:19;;;;;;;8.13;5.53;;;10.30;99.90;;;;;;5051984;28;20206;-71
2022/09/22 03:10:46;;;;;;;7.73;5.27;;;10.40;99.90;;;;;;5051654;28;20202;-71
2022/09/22 03:13:13;;;;;;;7.70;5.00;;;10.40;99.90;;;;;;5044846;28;20209;-71
2022/09/22 03:15:39;;;;;;;8.60;5.50;;;10.40;99.90;;;;;;5048047;28;20742;-70
2022/09/22 03:18:06;;;;;;;6.77;5.63;;;10.40;99.90;;;;;;5062814;28;20209;-71
2022/09/22 03:20:33;;;;;;;10.33;5.70;;;10.40;99.90;;;;;;5053907;28;20230;-70
2022/09/22 03:23:01;;;;;;;8.00;5.73;;;10.40;99.90;;;;;;5052530;28;20265;-71
2022/09/22 03:25:28;;;;;;;8.43;5.47;;;10.40;99.90;;;;;;5051914;28;20299;-70
2022/09/22 03:27:55;;;;;;;8.53;6.13;;;10.40;99.90;;;;;;5052423;28;20213;-71
2022/09/22 03:30:21;;;;;;;9.57;6.50;;;10.10;99.90;;;;;;5040559;28;20569;-70
2022/09/22 03:32:48;;;;;;;8.07;5.67;;;10.40;99.90;;;;;;5048106;28;20209;-70
2022/09/22 03:35:15;;;;;;;7.97;5.90;;;10.40;99.90;;;;;;5052412;28;20229;-71
2022/09/22 03:37:42;;;;;;;7.60;5.63;;;10.50;99.90;;;;;;5057242;28;20233;-71
2022/09/22 03:40:10;;;;;;;10.63;6.10;;;10.50;99.90;;;;;;5056459;28;20236;-71
2022/09/22 03:42:37;;;;;;;7.63;5.80;;;10.50;99.90;;;;;;5046274;28;20206;-71
2022/09/22 03:45:05;;;;;;;9.27;6.00;;;10.50;99.90;;;;;;5058248;28;20218;-71
2022/09/22 03:47:31;;;;;;;9.43;6.47;;;10.50;99.90;;;;;;5058807;28;20202;-70
2022/09/22 03:49:58;;;;;;;12.50;6.90;;;10.50;99.90;;;;;;5051884;28;20220;-70
2022/09/22 03:52:26;;;;;;;7.33;6.37;;;10.50;99.90;;;;;;5050989;28;20217;-70
2022/09/22 03:54:53;;;;;;;9.33;6.30;;;10.50;99.90;;;;;;5058095;28;20205;-71
2022/09/22 03:57:21;;;;;;;7.43;6.07;;;10.50;99.90;;;;;;5059359;28;20212;-71
2022/09/22 03:59:48;;;;;;;8.00;6.37;;;10.50;99.90;;;;;;5053244;28;20226;-70
2022/09/22 04:02:15;;;;;;;8.00;6.20;;;10.60;99.90;;;;;;5055302;28;20214;-70
2022/09/22 04:04:41;;;;;;;9.30;6.83;;;10.60;99.90;;;;;;5054940;28;20273;-71
2022/09/22 04:07:08;;;;;;;7.67;6.40;;;10.60;99.90;;;;;;5055211;28;20289;-70
2022/09/22 04:09:35;;;;;;;9.43;6.53;;;10.60;99.90;;;;;;5056431;28;20202;-71
2022/09/22 04:12:02;;;;;;;8.07;6.13;;;10.60;99.90;;;;;;5051262;28;20211;-71
2022/09/22 04:14:30;;;;;;;7.23;6.27;;;10.60;99.90;;;;;;5052369;28;20213;-70
2022/09/22 04:16:57;;;;;;;7.57;6.50;;;10.60;99.90;;;;;;5066221;28;20209;-70
2022/09/22 04:19:24;;;;;;;7.53;6.40;;;10.60;99.90;;;;;;5043748;28;20581;-70
2022/09/22 04:21:50;;;;;;;10.70;6.60;;;10.60;99.90;;;;;;5053589;28;20237;-71
2022/09/22 04:24:17;;;;;;;10.17;7.00;;;10.60;99.90;;;;;;5054762;28;20288;-71
2022/09/22 04:26:44;;;;;;;10.50;6.23;;;10.60;99.90;;;;;;5068269;28;20579;-73
2022/09/22 04:29:11;;;;;;;8.53;6.90;;;10.60;99.90;;;;;;5052069;28;20217;-70
2022/09/22 04:31:39;;;;;;;10.33;6.97;;;10.60;99.90;;;;;;5061052;28;20217;-70
2022/09/22 04:34:06;;;;;;;7.13;6.13;;;10.60;99.90;;;;;;5051163;28;20213;-70
2022/09/22 04:36:32;;;;;;;7.07;6.17;;;10.60;99.90;;;;;;5043226;28;20284;-70
2022/09/22 04:39:02;;;;;;;9.33;6.33;;;10.60;99.90;;;;;;5054720;28;20210;-70
2022/09/22 04:41:29;;;;;;;9.93;6.20;;;10.60;99.90;;;;;;5055510;28;20847;-70
2022/09/22 04:43:56;;;;;;;7.23;6.23;;;10.60;99.90;;;;;;5053388;28;20209;-71
2022/09/22 04:46:25;;;;;;;7.63;6.23;;;10.60;99.90;;;;;;5053167;28;20205;-70
2022/09/22 04:48:53;;;;;;;8.13;5.93;;;10.70;99.90;;;;;;5049763;28;20205;-71
2022/09/22 04:51:20;;;;;;;7.43;5.97;;;10.70;99.90;;;;;;5053329;28;20229;-70
2022/09/22 04:53:47;;;;;;;6.97;5.77;;;10.70;99.90;;;;;;5058989;28;20201;-70
2022/09/22 04:56:14;;;;;;;7.93;5.53;;;10.70;99.90;;;;;;5066028;28;20210;-70
2022/09/22 04:58:40;;;;;;;7.00;6.30;;;10.70;99.90;;;;;;5069949;28;20205;-69
2022/09/22 05:01:07;;;;;;;7.00;6.30;;;10.80;99.90;;;;;;5055419;28;20320;-68
2022/09/22 05:03:36;;;;;;;9.10;7.80;;;10.80;99.90;;;;;;5048754;28;20778;-68
2022/09/22 05:06:05;;;;;;;12.83;6.90;;;10.80;99.90;;;;;;5047239;28;20241;-69
2022/09/22 05:08:32;;;;;;;9.30;6.70;;;10.80;99.90;;;;;;5052036;28;20212;-68
2022/09/22 05:10:59;;;;;;;9.47;6.70;;;10.80;99.90;;;;;;5059609;28;20202;-68
2022/09/22 05:13:29;;;;;;;10.07;7.77;;;10.80;99.90;;;;;;5054013;28;20233;-68
2022/09/22 05:15:55;;;;;;;7.60;6.83;;;10.80;99.90;;;;;;5052215;28;20735;-69
2022/09/22 05:18:22;;;;;;;9.33;7.47;;;10.80;99.90;;;;;;5047300;28;20202;-68
2022/09/22 05:20:49;;;;;;;9.90;7.27;;;10.80;99.90;;;;;;5049362;28;20225;-67
2022/09/22 05:23:17;;;;;;;10.47;7.37;;;10.90;99.90;;;;;;5055393;28;20236;-68
2022/09/22 05:25:44;;;;;;;12.00;7.40;;;10.90;99.90;;;;;;5056198;28;20682;-70
2022/09/22 05:28:11;;;;;;;11.70;8.13;;;10.90;99.90;;;;;;5050004;28;20209;-69
2022/09/22 05:30:37;;;;;;;10.93;8.37;;;10.90;99.90;;;;;;5054530;28;20210;-68
2022/09/22 05:33:04;;;;;;;8.67;6.80;;;10.90;99.90;;;;;;5052054;28;20217;-70
2022/09/22 05:35:31;;;;;;;8.83;6.80;;;10.90;99.90;;;;;;5052313;28;20212;-73
2022/09/22 05:37:57;;;;;;;11.00;6.77;;;11.00;99.90;;;;;;5058903;28;20269;-73
2022/09/22 05:40:26;;;;;;;7.70;6.90;;;11.00;99.90;;;;;;5037155;28;20234;-70
2022/09/22 05:42:53;;;;;;;8.53;6.87;;;11.00;99.90;;;;;;5052131;28;20198;-70
2022/09/22 05:45:20;;;;;;;9.33;7.10;;;11.00;99.90;;;;;;5064375;28;20212;-70
2022/09/22 05:47:47;;;;;;;8.73;6.90;;;11.00;99.90;;;;;;5051709;28;20210;-70
2022/09/22 05:50:16;;;;;;;7.47;6.63;;;11.00;99.90;;;;;;5052149;28;20237;-71
2022/09/22 05:52:43;;;;;;;7.00;6.27;;;11.10;99.90;;;;;;5051717;28;20205;-70
2022/09/22 05:55:11;;;;;;;13.17;6.87;;;11.10;99.90;;;;;;5049489;28;20414;-69
2022/09/22 05:57:40;;;;;;;6.63;5.93;;;11.10;99.90;;;;;;5054176;28;20214;-71
2022/09/22 06:00:08;;;;;;;8.20;5.97;;;11.10;99.90;;;;;;5050902;28;20218;-71
2022/09/22 06:02:35;;;;;;;8.40;6.80;;;11.20;99.90;;;;;;5053548;28;20288;-70
2022/09/22 06:05:02;;;;;;;7.50;6.30;;;11.20;99.90;;;;;;5052354;28;20218;-70
2022/09/22 06:07:29;;;;;;;7.27;6.40;;;11.20;99.90;;;;;;5051889;28;20206;-70
2022/09/22 06:09:56;;;;;;;9.43;5.73;;;11.30;99.90;;;;;;5060207;28;20210;-70
2022/09/22 06:12:24;;;;;;;8.67;5.70;;;11.30;99.90;;;;;;5046606;28;20225;-71
2022/09/22 06:14:52;;;;;;;8.17;6.00;;;11.30;99.90;;;;;;5061949;28;20206;-71
2022/09/22 06:17:19;;;;;;;9.93;5.80;;;11.30;99.90;;;;;;5052313;28;20204;-70
2022/09/22 06:19:49;;;;;;;6.67;5.97;;;11.40;99.90;;;;;;5054806;28;20213;-72
2022/09/22 06:22:17;;;;;;;7.83;6.20;;;11.40;99.90;;;;;;5049163;28;20221;-71
2022/09/22 06:24:44;;;;;;;7.37;6.67;;;11.40;99.90;;;;;;5040193;28;20515;-70
2022/09/22 06:27:11;;;;;;;6.67;5.70;;;11.40;99.90;;;;;;5060621;28;20224;-71
2022/09/22 06:29:38;;;;;;;9.60;6.63;;;11.40;99.90;;;;;;5038734;28;20217;-70
2022/09/22 06:32:09;;;;;;;6.53;5.77;;;11.40;99.90;;;;;;5052168;28;20580;-70
2022/09/22 06:34:35;;;;;;;7.00;5.13;;;11.50;99.90;;;;;;5051270;28;20206;-70
2022/09/22 06:37:02;;;;;;;6.57;5.90;;;11.50;99.90;;;;;;5063281;28;20241;-70
2022/09/22 06:39:29;;;;;;;10.83;6.40;;;11.60;99.90;;;;;;5066512;28;20212;-70
2022/09/22 06:41:56;;;;;;;6.57;5.87;;;11.80;99.90;;;;;;5039750;28;20227;-70
2022/09/22 06:44:24;;;;;;;8.87;5.93;;;11.80;99.90;;;;;;5052227;28;20216;-69
2022/09/22 06:46:52;;;;;;;7.83;6.27;;;11.80;99.90;;;;;;5046073;28;20237;-70
2022/09/22 06:49:20;;;;;;;8.33;6.27;;;11.90;99.90;;;;;;5054888;28;20221;-70
2022/09/22 06:51:48;;;;;;;6.73;5.87;;;12.00;99.90;;;;;;5052712;28;20561;-69
2022/09/22 06:54:15;;;;;;;7.00;6.27;;;12.10;99.90;;;;;;5050950;28;20301;-70
2022/09/22 06:56:42;;;;;;;7.97;5.97;;;12.10;99.90;;;;;;5049261;28;20206;-69
2022/09/22 06:59:12;;;;;;;6.00;5.40;;;12.20;99.90;;;;;;5048227;28;20210;-69
2022/09/22 07:01:40;;;;;;;5.57;5.00;;;12.20;99.90;;;;;;5044817;28;20287;-70
2022/09/22 07:04:07;;;;;;;7.43;5.50;;;12.30;99.90;;;;;;5044115;28;20210;-70
2022/09/22 07:06:36;;;;;;;5.60;5.10;;;12.30;99.90;;;;;;5056501;28;20213;-70
2022/09/22 07:09:03;;;;;;;9.90;5.77;;;12.30;99.90;;;;;;5060364;28;20232;-71
2022/09/22 07:11:30;;;;;;;6.27;5.27;;;12.40;99.90;;;;;;5050332;28;20202;-70
2022/09/22 07:13:57;;;;;;;7.07;5.37;;;12.50;99.90;;;;;;5057839;28;20292;-70
2022/09/22 07:16:26;;;;;;;7.17;5.67;;;12.60;99.90;;;;;;5055708;28;20201;-70
2022/09/22 07:18:55;;;;;;;9.97;5.57;;;12.80;99.90;;;;;;5049504;28;20210;-70
2022/09/22 07:21:25;;;;;;;7.53;5.70;;;13.00;99.90;;;;;;5059180;28;20590;-69
2022/09/22 07:23:54;;;;;;;6.47;5.87;;;13.10;99.90;;;;;;5064305;28;20773;-70
2022/09/22 07:26:25;;;;;;;7.90;5.73;;;13.30;99.90;;;;;;5060953;28;20216;-71
2022/09/22 07:28:52;;;;;;;6.47;5.87;;;13.60;99.90;;;;;;5053904;28;20221;-71
2022/09/22 07:31:20;;;;;;;5.53;5.00;;;13.70;99.90;;;;;;5052282;28;20225;-71
2022/09/22 07:33:47;;;;;;;6.70;4.73;;;13.90;99.90;;;;;;5051273;28;20247;-71
2022/09/22 07:36:17;;;;;;;8.13;4.83;;;14.10;99.90;;;;;;5054450;28;20613;-70
2022/09/22 07:38:47;;;;;;;8.43;4.37;;;14.30;99.90;;;;;;5068318;28;20251;-70
2022/09/22 07:41:18;;;;;;;5.33;4.47;;;14.30;99.90;;;;;;5055276;28;20214;-70
2022/09/22 07:43:45;;;;;;;4.37;3.97;;;14.40;99.90;;;;;;5055494;28;20202;-70
2022/09/22 07:46:12;;;;;;;5.53;4.83;;;14.30;99.90;;;;;;5051652;28;20228;-69
2022/09/22 07:48:46;;;;;;;6.00;4.47;;;14.30;99.90;;;;;;5056146;28;20203;-70
2022/09/22 07:51:17;;;;;;;5.27;4.40;;;14.40;99.90;;;;;;5054555;28;20269;-70
2022/09/22 07:53:45;;;;;;;6.43;5.33;;;14.50;99.90;;;;;;5055106;28;20294;-69
2022/09/22 07:56:13;;;;;;;6.90;5.30;;;14.40;99.90;;;;;;5069946;28;20209;-69
2022/09/22 07:58:45;;;;;;;6.80;4.90;;;14.50;99.90;;;;;;5055413;28;20210;-70
2022/09/22 08:01:13;;;;;;;7.47;5.13;;;14.60;99.90;;;;;;5053331;28;20324;-70
2022/09/22 08:03:40;;;;;;;5.63;4.80;;;14.70;99.90;;;;;;5055938;28;20580;-70
2022/09/22 08:06:10;;;;;;;8.67;4.60;;;14.90;99.90;;;;;;5055931;28;20217;-71
2022/09/22 08:08:38;;;;;;;7.83;4.43;;;15.10;99.90;;;;;;5050437;28;20299;-69
2022/09/22 08:11:06;;;;;;;4.97;4.10;;;15.30;99.90;;;;;;5057156;28;20210;-71
2022/09/22 08:13:35;;;;;;;6.00;3.90;;;15.50;99.90;;;;;;5044734;28;20202;-71
2022/09/22 08:16:04;;;;;;;4.20;3.67;;;15.80;99.90;;;;;;5072891;28;20678;-70
2022/09/22 08:18:31;;;;;;;4.50;3.93;;;15.90;99.90;;;;;;5072315;28;20225;-69
2022/09/22 08:20:59;;;;;;;6.07;4.57;;;16.00;99.90;;;;;;5074646;28;20209;-70
2022/09/22 08:23:26;;;;;;;4.67;4.13;;;16.10;99.90;;;;;;5055588;28;20236;-69
2022/09/22 08:25:53;;;;;;;5.97;3.77;;;16.30;99.90;;;;;;5055684;28;20207;-70
2022/09/22 08:28:20;;;;;;;4.80;3.80;;;16.50;99.90;;;;;;5055298;28;20212;-73
2022/09/22 08:30:47;;;;;;;4.90;3.93;;;16.90;99.90;;;;;;5048377;28;20214;-69
2022/09/22 08:33:15;;;;;;;5.03;3.87;;;17.10;99.90;;;;;;5045123;28;20213;-69
2022/09/22 08:35:52;;;;;;;6.03;3.80;;;17.40;99.90;;;;;;5048719;28;20304;-69
2022/09/22 08:38:21;;;;;;;4.15;3.15;;;17.60;99.90;;;;;;5049769;28;20211;-69
2022/09/22 08:41:01;;;;;;;4.03;3.33;;;17.90;99.90;;;;;;5061287;28;20225;-69
2022/09/22 08:43:30;;;;;;;4.97;3.00;;;18.00;99.90;;;;;;5048523;28;20607;-72
2022/09/22 08:45:57;;;;;;;4.03;2.60;;;18.10;99.90;;;;;;5052421;28;20240;-71
2022/09/22 08:54:01;;;;;;;5.22;3.30;;;18.80;99.90;;;;;;5054953;28;20259;-71
2022/09/22 08:56:33;;;;;;;3.42;2.70;;;19.20;99.90;;;;;;5053495;28;20210;-71
2022/09/22 08:59:07;;;;;;;6.10;2.38;;;19.40;99.90;;;;;;5052625;28;20213;-72
2022/09/22 09:01:52;;;;;;;2.47;2.28;;;19.90;99.90;;;;;;5060726;28;20220;-71
2022/09/22 09:04:55;;;;;;;5.60;3.00;;;20.30;99.90;;;;;;5059293;28;20679;-72
2022/09/22 09:07:32;;;;;;;7.35;2.80;;;20.70;99.90;;;;;;5004968;28;20253;-71
2022/09/22 09:10:07;;;;;;;3.85;2.53;;;20.70;99.90;;;;;;5049090;28;20205;-69
2022/09/22 09:12:48;;;;;;;2.45;1.95;;;21.20;99.90;;;;;;5056815;28;20190;-70
2022/09/22 09:15:32;;;;;;;2.22;2.00;;;23.80;99.90;;;;;;5052289;28;20210;-70
2022/09/22 09:18:05;;;;;;;3.67;2.00;;;26.60;90.80;;;;;;5046726;28;20220;-69
2022/09/22 09:20:44;;;;;;;3.13;2.05;;;27.60;77.00;;;;;;5049846;28;20211;-73
2022/09/22 09:23:16;;;;;;;2.80;2.17;;;27.70;73.00;;;;;;5048342;28;20222;-70
2022/09/22 09:25:45;;;;;;;2.60;2.20;;;28.80;68.50;;;;;;5061088;28;20205;-69
2022/09/22 09:28:15;;;;;;;3.47;1.83;;;29.00;62.70;;;;;;5046091;28;20670;-69
2022/09/22 09:30:45;;;;;;;3.80;1.90;;;29.70;60.80;;;;;;5050340;28;20674;-68
2022/09/22 09:33:21;;;;;;;1.70;1.60;;;31.70;58.70;;;;;;5045309;28;20615;-70
2022/09/22 09:35:51;;;;;;;3.33;1.80;;;34.30;52.30;;;;;;5050920;28;20259;-69
2022/09/22 09:38:25;;;;;;;2.45;1.75;;;36.80;46.40;;;;;;5049725;28;20689;-69
2022/09/22 09:40:57;;;;;;;1.85;1.75;;;39.00;42.10;;;;;;5044351;28;20203;-73
2022/09/22 09:43:26;;;;;;;2.58;1.67;;;40.80;37.90;;;;;;5051479;28;20229;-68
2022/09/22 09:46:07;;;;;;;2.58;1.38;;;41.20;36.40;;;;;;5052116;28;20214;-71
2022/09/22 09:48:39;;;;;;;1.70;1.60;;;40.60;36.50;;;;;;5055704;28;20536;-69
2022/09/22 09:51:11;;;;;;;8.98;1.52;;;41.50;34.60;;;;;;5053264;28;20258;-70
2022/09/22 09:53:43;;;;;;;2.70;1.30;;;41.40;33.20;;;;;;5054737;28;20240;-70
2022/09/22 09:56:23;;;;;;;1.52;1.42;;;39.20;33.50;;;;;;5060082;28;20205;-68
2022/09/22 10:01:45;;;;;;;1.23;1.10;;;37.80;37.30;;;;;;5056271;28;20708;-70
2022/09/22 10:04:27;;;;;;;1.00;0.90;;;39.30;34.60;;;;;;5058073;28;20206;-70
2022/09/22 10:07:08;;;;;;;1.45;1.15;;;39.00;34.10;;;;;;5054438;28;20674;-69
2022/09/22 10:09:35;;;;;;;1.13;1.08;;;37.90;34.30;;;;;;5057152;28;20209;-69
2022/09/22 10:12:03;;;;;;;5.78;1.23;;;38.20;34.60;;;;;;5065970;28;20212;-70
2022/09/22 10:14:33;;;;;;;1.15;1.05;;;39.60;33.50;;;;;;5050470;28;20567;-69
2022/09/22 10:17:00;;;;;;;1.05;0.95;;;39.60;31.70;;;;;;5048963;28;20220;-70
2022/09/22 10:19:29;;;;;;;1.00;1.00;;;37.50;32.10;;;;;;5044383;28;20214;-69
2022/09/22 10:22:32;;;;;;;2.75;1.35;;;35.20;34.10;;;;;;5039021;28;20232;-70
2022/09/22 10:25:02;;;;;;;0.80;0.80;;;32.80;36.40;;;;;;5050748;28;20569;-70
2022/09/22 10:27:31;;;;;;;0.80;0.70;;;30.50;38.50;;;;;;5055286;28;20220;-70
2022/09/22 10:30:21;;;;;;;1.02;0.90;;;28.90;40.20;;;;;;5058996;28;20198;-69
2022/09/22 10:33:05;;;;;;;1.15;0.95;;;27.40;42.10;;;;;;5059518;28;20656;-69
2022/09/22 10:35:34;;;;;;;1.63;1.02;;;26.30;43.70;;;;;;5052427;28;20267;-69
2022/09/22 10:38:08;;;;;;;0.70;0.70;;;25.30;45.10;;;;;;5045800;28;20341;-70
2022/09/22 10:40:40;;;;;;;1.58;0.93;;;24.40;46.80;;;;;;5056436;28;20251;-71
2022/09/22 10:43:18;;;;;;;1.23;1.00;;;23.60;48.70;;;;;;5042392;28;20206;-70
2022/09/22 10:45:53;;;;;;;1.63;1.13;;;22.90;50.80;;;;;;5049161;28;20198;-72
2022/09/22 10:48:28;;;;;;;0.85;0.60;;;22.30;52.80;;;;;;5055769;28;20205;-71
2022/09/22 10:51:04;;;;;;;0.80;0.80;;;21.80;53.60;;;;;;5051350;28;20201;-71
2022/09/22 10:53:50;;;;;;;1.67;1.15;;;21.40;54.50;;;;;;5052461;28;20224;-70
2022/09/22 10:56:27;;;;;;;1.95;1.45;;;21.30;55.80;;;;;;5050021;28;20197;-70
2022/09/22 10:59:25;;;;;;;1.75;1.27;;;22.30;60.40;;;;;;5062407;28;20198;-70
2022/09/22 11:02:13;;;;;;;1.65;1.20;;;25.70;56.70;;;;;;5058354;28;20205;-70
2022/09/22 11:04:53;;;;;;;1.38;1.10;;;26.90;49.20;;;;;;5048113;28;20607;-70
2022/09/22 11:13:33;;;;;;;2.17;1.10;;;23.60;50.90;;;;;;5053635;28;20726;-70
2022/09/22 11:16:35;;;;;;;1.00;1.00;;;22.30;52.60;;;;;;5041671;28;20209;-69
2022/09/22 11:19:30;;;;;;;0.85;0.80;;;21.50;54.20;;;;;;5031541;28;20221;-71
2022/09/22 11:22:17;;;;;;;0.90;0.90;;;20.70;55.70;;;;;;5041937;28;20308;-70
2022/09/22 11:24:59;;;;;;;1.20;1.15;;;20.10;57.20;;;;;;5045949;28;20206;-70
2022/09/22 11:27:39;;;;;;;1.33;1.23;;;19.60;58.30;;;;;;5053954;28;20216;-70
2022/09/22 11:30:21;;;;;;;0.90;0.90;;;19.30;59.30;;;;;;5049692;28;20210;-70
2022/09/22 11:33:19;;;;;;;1.35;1.02;;;19.10;59.60;;;;;;5046071;28;20251;-70
2022/09/22 11:36:11;;;;;;;1.30;1.20;;;18.80;59.50;;;;;;5023383;28;20233;-70
2022/09/22 11:39:02;;;;;;;1.33;1.10;;;18.50;59.90;;;;;;5052059;28;20225;-71
2022/09/22 11:41:32;;;;;;;1.30;1.20;;;18.30;60.80;;;;;;5050684;28;20202;-70
2022/09/22 11:44:21;;;;;;;1.48;1.38;;;18.10;62.00;;;;;;5052027;28;20230;-70
2022/09/22 11:47:02;;;;;;;2.05;1.40;;;17.90;63.30;;;;;;5049666;28;20197;-71
2022/09/22 11:49:39;;;;;;;1.63;1.52;;;17.60;64.40;;;;;;5054025;28;20194;-70
2022/09/22 11:52:21;;;;;;;1.50;1.40;;;17.40;65.70;;;;;;5052474;28;20753;-70
2022/09/22 11:55:05;;;;;;;3.22;2.70;;;17.30;67.00;;;;;;5043555;28;20288;-71
2022/09/22 11:57:35;;;;;;;1.58;1.48;;;17.20;67.70;;;;;;5051855;28;20830;-70
2022/09/22 12:00:05;;;;;;;1.52;1.42;;;17.10;68.30;;;;;;5050901;28;20217;-70
2022/09/22 12:02:39;;;;;;;1.73;1.50;;;17.00;68.70;;;;;;5047912;28;20314;-69
2022/09/22 12:05:13;;;;;;;1.55;1.45;;;16.90;69.30;;;;;;5038715;28;20229;-69
2022/09/22 12:07:49;;;;;;;1.52;1.42;;;16.80;70.10;;;;;;5049546;28;20542;-69
2022/09/22 12:10:21;;;;;;;2.53;1.42;;;16.70;70.90;;;;;;5039843;28;20206;-69
2022/09/22 12:12:50;;;;;;;1.20;1.10;;;16.70;71.40;;;;;;5052297;28;20206;-69
2022/09/22 12:15:24;;;;;;;1.90;1.20;;;16.60;71.30;;;;;;5052889;28;20321;-69
2022/09/22 12:18:00;;;;;;;2.13;1.52;;;16.60;72.20;;;;;;5048450;28;20194;-70
2022/09/22 12:20:40;;;;;;;2.63;1.35;;;16.60;73.10;;;;;;5052211;28;20266;-70
2022/09/22 12:23:19;;;;;;;1.65;1.55;;;16.70;74.50;;;;;;5051881;28;20241;-70
2022/09/22 12:25:49;;;;;;;1.70;1.60;;;16.80;74.80;;;;;;5052381;28;20424;-69
2022/09/22 12:28:17;;;;;;;1.70;1.60;;;16.70;75.20;;;;;;5053363;28;20201;-68
2022/09/22 12:31:04;;;;;;;2.03;1.80;;;16.70;76.10;;;;;;5052442;28;20217;-69
2022/09/22 12:33:35;;;;;;;3.05;1.67;;;16.50;77.00;;;;;;5043847;28;20203;-69
2022/09/22 12:36:06;;;;;;;1.67;1.57;;;16.40;77.80;;;;;;5046055;28;20225;-70
2022/09/22 12:38:33;;;;;;;1.90;1.50;;;16.40;78.40;;;;;;5044208;28;20258;-69
2022/09/22 12:41:03;;;;;;;2.00;1.75;;;16.40;78.70;;;;;;5049775;28;20217;-69
2022/09/22 12:43:31;;;;;;;1.52;1.42;;;16.30;79.20;;;;;;5050872;28;20320;-70
2022/09/22 12:46:00;;;;;;;1.65;1.55;;;16.30;79.90;;;;;;5049393;28;20219;-70
2022/09/22 12:48:30;;;;;;;1.73;1.63;;;16.20;80.40;;;;;;5047468;28;20234;-69
2022/09/22 12:51:16;;;;;;;1.95;1.73;;;16.10;81.10;;;;;;5052302;28;20206;-70
2022/09/22 12:53:43;;;;;;;1.88;1.65;;;16.10;81.70;;;;;;5063192;28;20642;-70
2022/09/22 12:56:43;;;;;;;1.60;1.50;;;15.70;81.90;;;;;;5055023;28;20221;-70
2022/09/22 12:59:43;;;;;;;2.97;1.67;;;16.00;83.20;;;;;;5054341;28;20232;-69
2022/09/22 13:02:17;;;;;;;1.80;1.57;;;15.90;83.90;;;;;;5043780;28;20645;-69
2022/09/22 13:05:17;;;;;;;1.60;1.50;;;15.90;85.00;;;;;;5054635;28;20214;-69
2022/09/22 13:07:45;;;;;;;1.80;1.70;;;15.90;85.70;;;;;;5048771;28;20228;-69
2022/09/22 13:10:39;;;;;;;2.07;1.73;;;15.90;86.60;;;;;;5050735;28;20209;-70
2022/09/22 13:13:11;;;;;;;1.67;1.57;;;15.90;87.10;;;;;;5053401;28;20198;-69
2022/09/22 13:15:58;;;;;;;1.40;1.30;;;15.90;87.60;;;;;;5052068;28;20198;-70
2022/09/22 13:18:30;;;;;;;1.80;1.70;;;16.00;88.20;;;;;;5055008;28;20283;-69
2022/09/22 13:20:57;;;;;;;1.98;1.77;;;16.10;88.30;;;;;;5056328;28;20205;-69
2022/09/22 13:23:26;;;;;;;2.03;1.93;;;16.20;88.50;;;;;;5050697;28;20248;-70